Anda — TCA3795 — position and weather

sailwx.info

Track history (hours):
 
Tides and Currents Weather Stations Pressure Air Temp Water Temp Dewpoint Dewpoint Depression Visibility Wind Speed Wind Dir Waves Ship Positions

Anda

Last reported at 2018-Jun-21 12:51 UTC. Time now 2018-Jun-21 16:16 UTC.
Position N 41°19' E 031°05'.

Length 83 m; draft 3.5 m.

Type: Cargo ship. MMSI: 271044329.

Date/timePositionNaut miles runAvg speedWind from/ knotsBaromVisibWave heightAir tempDewpointWater temp
2018-Jun-21 12:51N 41°19' E 031°05'6 9.4
2018-Jun-21 12:16N 41°18' E 030°57'2 9.4
2018-Jun-21 12:00N 41°18' E 030°54'  
2018-Jun-13 02:45N 40°55' E 028°56'3 8.2
2018-Jun-13 02:23N 40°58' E 028°58'5 9.5
2018-Jun-13 01:54N 41°02' E 029°00'410.2
2018-Jun-13 01:30N 41°05' E 029°04'4 8.5
2018-Jun-13 00:59N 41°09' E 029°03'5 9.2
2018-Jun-13 00:28N 41°13' E 029°07'3 6.3
2018-Jun-13 00:00N 41°16' E 029°06'43 5.1
2018-Jun-12 15:35N 41°58' E 029°15'1 8.3
2018-Jun-12 15:24N 41°59' E 029°16'3 8.3
2018-Jun-12 15:00N 42°03' E 029°16'5 8.4
2018-Jun-12 14:27N 42°07' E 029°17'4 8.3
2018-Jun-12 14:00N 42°11' E 029°18'4 8.3
2018-Jun-12 13:29N 42°15' E 029°19'9 8.3
2018-Jun-12 12:21N 42°24' E 029°21'3 8.5
2018-Jun-12 12:00N 42°27' E 029°21'28 8.4
2018-Jun-12 08:40N 42°55' E 029°28'1 8.3
2018-Jun-12 08:30N 42°56' E 029°28'4 8.2
2018-Jun-12 08:00N 43°01' E 029°28'4 8.2
2018-Jun-12 07:30N 43°05' E 029°29'4 8.2
2018-Jun-12 06:58N 43°09' E 029°29'4 8.2
2018-Jun-12 06:29N 43°13' E 029°30'4 8.3
2018-Jun-12 06:00N 43°17' E 029°31'4 8.3
2018-Jun-12 05:30N 43°21' E 029°31'4 8.3
2018-Jun-12 05:00N 43°25' E 029°32'4 8.3
2018-Jun-12 04:30N 43°29' E 029°32'4 8.4
2018-Jun-12 04:00N 43°33' E 029°33'4 8.4
2018-Jun-12 03:30N 43°38' E 029°34'4 8.5
2018-Jun-12 03:00N 43°42' E 029°35'4 8.6
2018-Jun-12 02:29N 43°46' E 029°36'4 8.6
2018-Jun-12 02:00N 43°50' E 029°37'5 8.5
2018-Jun-12 01:28N 43°55' E 029°38'4 8.5
2018-Jun-12 01:00N 43°59' E 029°39'4 8.5
2018-Jun-12 00:29N 44°03' E 029°40'4 8.5
2018-Jun-11 23:59N 44°07' E 029°41'4 8.4
2018-Jun-11 23:30N 44°11' E 029°42'4 8.4
2018-Jun-11 23:00N 44°15' E 029°42'4 8.4
2018-Jun-11 22:30N 44°19' E 029°42'4 8.2
2018-Jun-11 22:00N 44°24' E 029°43'4 8.1
2018-Jun-11 21:30N 44°27' E 029°44'4 8.2
2018-Jun-11 21:00N 44°32' E 029°45'4 8.3
2018-Jun-11 20:30N 44°36' E 029°45'4 8.4
2018-Jun-11 20:00N 44°40' E 029°44'4 8.4
2018-Jun-11 19:30N 44°44' E 029°44'4 8.3
2018-Jun-11 19:00N 44°48' E 029°44'4 7.9
2018-Jun-11 18:30N 44°52' E 029°45'4 7.8
2018-Jun-11 18:00N 44°56' E 029°45'4 8.0
2018-Jun-11 17:30N 45°00' E 029°46'4 8.0
2018-Jun-11 17:00N 45°04' E 029°47'4 7.6
2018-Jun-11 16:30N 45°08' E 029°48'5 8.5
2018-Jun-11 15:58N 45°10' E 029°42'4 9.2
2018-Jun-11 15:29N 45°10' E 029°36'4 8.3
2018-Jun-11 15:00N 45°10' E 029°30'  
Track history (hours):
 
Tides and Currents Weather Stations Pressure Air Temp Water Temp Dewpoint Dewpoint Depression Visibility Wind Speed Wind Dir Waves Ship Positions

Anda

Last reported at 2018-Jun-21 12:51 UTC. Time now 2018-Jun-21 16:16 UTC.
Position N 41°19' E 031°05'.

Length 83 m; draft 3.5 m.

Type: Cargo ship. MMSI: 271044329.

Date/timePositionNaut miles runAvg speedWind from/ knotsBaromVisibWave heightAir tempDewpointWater temp
2018-Jun-21 12:51N 41°19' E 031°05'6 9.4
2018-Jun-21 12:16N 41°18' E 030°57'2 9.4
2018-Jun-21 12:00N 41°18' E 030°54'  
2018-Jun-13 02:45N 40°55' E 028°56'3 8.2
2018-Jun-13 02:23N 40°58' E 028°58'5 9.5
2018-Jun-13 01:54N 41°02' E 029°00'410.2
2018-Jun-13 01:30N 41°05' E 029°04'4 8.5
2018-Jun-13 00:59N 41°09' E 029°03'5 9.2
2018-Jun-13 00:28N 41°13' E 029°07'3 6.3
2018-Jun-13 00:00N 41°16' E 029°06'43 5.1
2018-Jun-12 15:35N 41°58' E 029°15'1 8.3
2018-Jun-12 15:24N 41°59' E 029°16'3 8.3
2018-Jun-12 15:00N 42°03' E 029°16'5 8.4
2018-Jun-12 14:27N 42°07' E 029°17'4 8.3
2018-Jun-12 14:00N 42°11' E 029°18'4 8.3
2018-Jun-12 13:29N 42°15' E 029°19'9 8.3
2018-Jun-12 12:21N 42°24' E 029°21'3 8.5
2018-Jun-12 12:00N 42°27' E 029°21'28 8.4
2018-Jun-12 08:40N 42°55' E 029°28'1 8.3
2018-Jun-12 08:30N 42°56' E 029°28'4 8.2
2018-Jun-12 08:00N 43°01' E 029°28'4 8.2
2018-Jun-12 07:30N 43°05' E 029°29'4 8.2
2018-Jun-12 06:58N 43°09' E 029°29'4 8.2
2018-Jun-12 06:29N 43°13' E 029°30'4 8.3
2018-Jun-12 06:00N 43°17' E 029°31'4 8.3
2018-Jun-12 05:30N 43°21' E 029°31'4 8.3
2018-Jun-12 05:00N 43°25' E 029°32'4 8.3
2018-Jun-12 04:30N 43°29' E 029°32'4 8.4
2018-Jun-12 04:00N 43°33' E 029°33'4 8.4
2018-Jun-12 03:30N 43°38' E 029°34'4 8.5
2018-Jun-12 03:00N 43°42' E 029°35'4 8.6
2018-Jun-12 02:29N 43°46' E 029°36'4 8.6
2018-Jun-12 02:00N 43°50' E 029°37'5 8.5
2018-Jun-12 01:28N 43°55' E 029°38'4 8.5
2018-Jun-12 01:00N 43°59' E 029°39'4 8.5
2018-Jun-12 00:29N 44°03' E 029°40'4 8.5
2018-Jun-11 23:59N 44°07' E 029°41'4 8.4
2018-Jun-11 23:30N 44°11' E 029°42'4 8.4
2018-Jun-11 23:00N 44°15' E 029°42'4 8.4
2018-Jun-11 22:30N 44°19' E 029°42'4 8.2
2018-Jun-11 22:00N 44°24' E 029°43'4 8.1
2018-Jun-11 21:30N 44°27' E 029°44'4 8.2
2018-Jun-11 21:00N 44°32' E 029°45'4 8.3
2018-Jun-11 20:30N 44°36' E 029°45'4 8.4
2018-Jun-11 20:00N 44°40' E 029°44'4 8.4
2018-Jun-11 19:30N 44°44' E 029°44'4 8.3
2018-Jun-11 19:00N 44°48' E 029°44'4 7.9
2018-Jun-11 18:30N 44°52' E 029°45'4 7.8
2018-Jun-11 18:00N 44°56' E 029°45'4 8.0
2018-Jun-11 17:30N 45°00' E 029°46'4 8.0
2018-Jun-11 17:00N 45°04' E 029°47'4 7.6
2018-Jun-11 16:30N 45°08' E 029°48'5 8.5
2018-Jun-11 15:58N 45°10' E 029°42'4 9.2
2018-Jun-11 15:29N 45°10' E 029°36'4 8.3
2018-Jun-11 15:00N 45°10' E 029°30'  

Dump ship's entire track history